sensor_id;sensor_type;location;lat;lon;timestamp;P1;durP1;ratioP1;P2;durP2;ratioP2
37411;SDS011;23278;52.110;6.050;2022-12-18T00:01:38;40.80;;;17.10;;
37411;SDS011;23278;52.110;6.050;2022-12-18T00:04:05;41.53;;;16.77;;
37411;SDS011;23278;52.110;6.050;2022-12-18T00:06:33;49.30;;;18.73;;
37411;SDS011;23278;52.110;6.050;2022-12-18T00:09:00;42.30;;;16.33;;
37411;SDS011;23278;52.110;6.050;2022-12-18T00:11:29;39.97;;;16.13;;
37411;SDS011;23278;52.110;6.050;2022-12-18T00:13:56;31.63;;;15.53;;
37411;SDS011;23278;52.110;6.050;2022-12-18T00:16:24;41.60;;;15.97;;
37411;SDS011;23278;52.110;6.050;2022-12-18T00:18:53;41.83;;;16.97;;
37411;SDS011;23278;52.110;6.050;2022-12-18T00:21:24;32.63;;;13.43;;
37411;SDS011;23278;52.110;6.050;2022-12-18T00:23:51;31.27;;;13.00;;
37411;SDS011;23278;52.110;6.050;2022-12-18T00:26:24;66.70;;;21.30;;
37411;SDS011;23278;52.110;6.050;2022-12-18T00:28:59;51.13;;;21.30;;
37411;SDS011;23278;52.110;6.050;2022-12-18T00:31:34;42.53;;;16.60;;
37411;SDS011;23278;52.110;6.050;2022-12-18T00:34:01;34.50;;;14.87;;
37411;SDS011;23278;52.110;6.050;2022-12-18T00:36:28;34.47;;;14.83;;
37411;SDS011;23278;52.110;6.050;2022-12-18T00:38:56;46.37;;;15.67;;
37411;SDS011;23278;52.110;6.050;2022-12-18T00:41:23;53.00;;;18.60;;
37411;SDS011;23278;52.110;6.050;2022-12-18T00:44:09;35.63;;;15.47;;
37411;SDS011;23278;52.110;6.050;2022-12-18T00:46:37;43.87;;;18.20;;
37411;SDS011;23278;52.110;6.050;2022-12-18T00:49:03;52.47;;;20.93;;
37411;SDS011;23278;52.110;6.050;2022-12-18T00:51:29;45.53;;;20.07;;
37411;SDS011;23278;52.110;6.050;2022-12-18T00:53:55;43.47;;;20.43;;
37411;SDS011;23278;52.110;6.050;2022-12-18T00:56:22;42.33;;;16.97;;
37411;SDS011;23278;52.110;6.050;2022-12-18T00:58:49;37.50;;;14.13;;
37411;SDS011;23278;52.110;6.050;2022-12-18T01:01:15;45.63;;;18.20;;
37411;SDS011;23278;52.110;6.050;2022-12-18T01:03:41;50.10;;;21.53;;
37411;SDS011;23278;52.110;6.050;2022-12-18T01:06:09;50.30;;;20.33;;
37411;SDS011;23278;52.110;6.050;2022-12-18T01:08:37;48.30;;;18.97;;
37411;SDS011;23278;52.110;6.050;2022-12-18T01:11:16;39.20;;;18.23;;
37411;SDS011;23278;52.110;6.050;2022-12-18T01:13:43;36.63;;;16.40;;
37411;SDS011;23278;52.110;6.050;2022-12-18T01:16:14;36.33;;;16.17;;
37411;SDS011;23278;52.110;6.050;2022-12-18T01:18:41;41.13;;;18.02;;
37411;SDS011;23278;52.110;6.050;2022-12-18T01:21:09;39.97;;;18.53;;
37411;SDS011;23278;52.110;6.050;2022-12-18T01:23:36;51.03;;;18.23;;
37411;SDS011;23278;52.110;6.050;2022-12-18T01:26:10;35.40;;;15.83;;
37411;SDS011;23278;52.110;6.050;2022-12-18T01:28:38;38.93;;;17.47;;
37411;SDS011;23278;52.110;6.050;2022-12-18T01:31:15;36.30;;;15.13;;
37411;SDS011;23278;52.110;6.050;2022-12-18T01:33:45;42.53;;;17.20;;
37411;SDS011;23278;52.110;6.050;2022-12-18T01:36:24;39.00;;;16.13;;
37411;SDS011;23278;52.110;6.050;2022-12-18T01:38:52;41.27;;;16.67;;
37411;SDS011;23278;52.110;6.050;2022-12-18T01:41:20;36.50;;;16.93;;
37411;SDS011;23278;52.110;6.050;2022-12-18T01:43:53;33.90;;;14.67;;
37411;SDS011;23278;52.110;6.050;2022-12-18T01:46:22;39.20;;;16.27;;
37411;SDS011;23278;52.110;6.050;2022-12-18T01:48:52;29.63;;;13.97;;
37411;SDS011;23278;52.110;6.050;2022-12-18T01:51:23;37.67;;;16.17;;
37411;SDS011;23278;52.110;6.050;2022-12-18T01:53:49;34.23;;;15.57;;
37411;SDS011;23278;52.110;6.050;2022-12-18T01:56:16;36.47;;;14.73;;
37411;SDS011;23278;52.110;6.050;2022-12-18T02:01:31;35.50;;;14.40;;
37411;SDS011;23278;52.110;6.050;2022-12-18T02:04:20;31.23;;;13.90;;
37411;SDS011;23278;52.110;6.050;2022-12-18T02:06:52;36.47;;;18.07;;
37411;SDS011;23278;52.110;6.050;2022-12-18T02:09:31;37.07;;;16.37;;
37411;SDS011;23278;52.110;6.050;2022-12-18T02:12:05;34.00;;;16.43;;
37411;SDS011;23278;52.110;6.050;2022-12-18T02:17:33;27.33;;;13.03;;
37411;SDS011;23278;52.110;6.050;2022-12-18T02:20:13;25.73;;;12.23;;
37411;SDS011;23278;52.110;6.050;2022-12-18T02:28:28;31.47;;;13.53;;
37411;SDS011;23278;52.110;6.050;2022-12-18T02:31:03;30.77;;;13.93;;
37411;SDS011;23278;52.110;6.050;2022-12-18T02:33:31;29.63;;;14.73;;
37411;SDS011;23278;52.110;6.050;2022-12-18T02:35:59;26.83;;;11.27;;
37411;SDS011;23278;52.110;6.050;2022-12-18T02:38:27;29.27;;;12.10;;
37411;SDS011;23278;52.110;6.050;2022-12-18T02:40:59;27.60;;;11.75;;
37411;SDS011;23278;52.110;6.050;2022-12-18T02:43:25;31.43;;;11.90;;
37411;SDS011;23278;52.110;6.050;2022-12-18T02:45:54;26.63;;;12.60;;
37411;SDS011;23278;52.110;6.050;2022-12-18T02:48:25;26.53;;;12.37;;
37411;SDS011;23278;52.110;6.050;2022-12-18T02:51:07;29.67;;;13.33;;
37411;SDS011;23278;52.110;6.050;2022-12-18T02:53:56;23.47;;;11.60;;
37411;SDS011;23278;52.110;6.050;2022-12-18T02:56:30;25.42;;;12.35;;
37411;SDS011;23278;52.110;6.050;2022-12-18T02:59:07;28.07;;;11.90;;
37411;SDS011;23278;52.110;6.050;2022-12-18T03:01:55;23.27;;;12.00;;
37411;SDS011;23278;52.110;6.050;2022-12-18T03:04:38;22.90;;;11.30;;
37411;SDS011;23278;52.110;6.050;2022-12-18T03:07:17;20.30;;;11.17;;
37411;SDS011;23278;52.110;6.050;2022-12-18T03:09:50;24.77;;;9.33;;
37411;SDS011;23278;52.110;6.050;2022-12-18T03:12:24;17.03;;;8.77;;
37411;SDS011;23278;52.110;6.050;2022-12-18T03:17:36;24.90;;;12.30;;
37411;SDS011;23278;52.110;6.050;2022-12-18T03:20:07;21.93;;;10.93;;
37411;SDS011;23278;52.110;6.050;2022-12-18T03:22:39;28.33;;;12.30;;
37411;SDS011;23278;52.110;6.050;2022-12-18T03:25:09;24.67;;;11.50;;
37411;SDS011;23278;52.110;6.050;2022-12-18T03:27:38;23.03;;;10.90;;
37411;SDS011;23278;52.110;6.050;2022-12-18T03:30:12;25.50;;;11.90;;
37411;SDS011;23278;52.110;6.050;2022-12-18T03:35:30;22.97;;;10.07;;
37411;SDS011;23278;52.110;6.050;2022-12-18T03:38:00;25.23;;;13.10;;
37411;SDS011;23278;52.110;6.050;2022-12-18T03:40:29;22.47;;;11.63;;
37411;SDS011;23278;52.110;6.050;2022-12-18T03:43:11;26.30;;;11.50;;
37411;SDS011;23278;52.110;6.050;2022-12-18T03:45:47;28.23;;;11.70;;
37411;SDS011;23278;52.110;6.050;2022-12-18T03:48:37;27.47;;;10.43;;
37411;SDS011;23278;52.110;6.050;2022-12-18T03:51:10;25.50;;;11.93;;
37411;SDS011;23278;52.110;6.050;2022-12-18T03:54:02;26.47;;;11.63;;
37411;SDS011;23278;52.110;6.050;2022-12-18T03:56:39;23.50;;;10.20;;
37411;SDS011;23278;52.110;6.050;2022-12-18T04:01:40;18.33;;;8.07;;
37411;SDS011;23278;52.110;6.050;2022-12-18T04:04:12;19.50;;;9.60;;
37411;SDS011;23278;52.110;6.050;2022-12-18T04:06:40;22.03;;;9.80;;
37411;SDS011;23278;52.110;6.050;2022-12-18T04:09:09;23.43;;;9.80;;
37411;SDS011;23278;52.110;6.050;2022-12-18T04:11:40;20.93;;;9.07;;
37411;SDS011;23278;52.110;6.050;2022-12-18T04:14:10;19.83;;;7.90;;
37411;SDS011;23278;52.110;6.050;2022-12-18T04:16:36;24.73;;;11.47;;
37411;SDS011;23278;52.110;6.050;2022-12-18T04:19:04;21.37;;;10.73;;
37411;SDS011;23278;52.110;6.050;2022-12-18T04:21:36;25.13;;;12.13;;
37411;SDS011;23278;52.110;6.050;2022-12-18T04:24:02;25.37;;;9.47;;
37411;SDS011;23278;52.110;6.050;2022-12-18T04:26:29;21.53;;;9.80;;
37411;SDS011;23278;52.110;6.050;2022-12-18T04:29:16;24.33;;;10.60;;
37411;SDS011;23278;52.110;6.050;2022-12-18T04:31:42;25.87;;;11.07;;
37411;SDS011;23278;52.110;6.050;2022-12-18T04:34:08;21.57;;;10.03;;
37411;SDS011;23278;52.110;6.050;2022-12-18T04:36:40;25.60;;;12.55;;
37411;SDS011;23278;52.110;6.050;2022-12-18T04:39:06;24.83;;;11.07;;
37411;SDS011;23278;52.110;6.050;2022-12-18T04:41:33;25.63;;;12.43;;
37411;SDS011;23278;52.110;6.050;2022-12-18T04:43:59;29.87;;;12.13;;
37411;SDS011;23278;52.110;6.050;2022-12-18T04:46:25;23.13;;;11.43;;
37411;SDS011;23278;52.110;6.050;2022-12-18T04:48:51;32.00;;;14.70;;
37411;SDS011;23278;52.110;6.050;2022-12-18T04:51:17;30.13;;;13.53;;
37411;SDS011;23278;52.110;6.050;2022-12-18T04:53:43;32.87;;;14.77;;
37411;SDS011;23278;52.110;6.050;2022-12-18T04:56:10;29.07;;;14.33;;
37411;SDS011;23278;52.110;6.050;2022-12-18T04:58:38;37.50;;;15.97;;
37411;SDS011;23278;52.110;6.050;2022-12-18T05:01:06;28.57;;;15.03;;
37411;SDS011;23278;52.110;6.050;2022-12-18T05:03:35;34.03;;;15.43;;
37411;SDS011;23278;52.110;6.050;2022-12-18T05:06:02;28.60;;;15.57;;
37411;SDS011;23278;52.110;6.050;2022-12-18T05:08:28;28.30;;;15.00;;
37411;SDS011;23278;52.110;6.050;2022-12-18T05:11:01;28.17;;;13.77;;
37411;SDS011;23278;52.110;6.050;2022-12-18T05:13:28;33.73;;;16.90;;
37411;SDS011;23278;52.110;6.050;2022-12-18T05:15:54;28.97;;;13.03;;
37411;SDS011;23278;52.110;6.050;2022-12-18T05:18:21;28.00;;;15.20;;
37411;SDS011;23278;52.110;6.050;2022-12-18T05:20:48;26.20;;;12.20;;
37411;SDS011;23278;52.110;6.050;2022-12-18T05:23:15;28.47;;;12.57;;
37411;SDS011;23278;52.110;6.050;2022-12-18T05:25:41;25.20;;;11.27;;
37411;SDS011;23278;52.110;6.050;2022-12-18T05:28:07;23.53;;;12.37;;
37411;SDS011;23278;52.110;6.050;2022-12-18T05:30:33;23.03;;;10.03;;
37411;SDS011;23278;52.110;6.050;2022-12-18T05:32:59;19.90;;;10.40;;
37411;SDS011;23278;52.110;6.050;2022-12-18T05:35:25;18.57;;;9.37;;
37411;SDS011;23278;52.110;6.050;2022-12-18T05:37:51;20.33;;;9.73;;
37411;SDS011;23278;52.110;6.050;2022-12-18T05:40:16;20.97;;;9.87;;
37411;SDS011;23278;52.110;6.050;2022-12-18T05:42:42;18.97;;;10.53;;
37411;SDS011;23278;52.110;6.050;2022-12-18T05:45:08;18.63;;;11.00;;
37411;SDS011;23278;52.110;6.050;2022-12-18T05:47:34;17.47;;;10.77;;
37411;SDS011;23278;52.110;6.050;2022-12-18T05:50:00;22.03;;;9.03;;
37411;SDS011;23278;52.110;6.050;2022-12-18T05:52:26;17.40;;;8.73;;
37411;SDS011;23278;52.110;6.050;2022-12-18T05:54:52;16.57;;;9.00;;
37411;SDS011;23278;52.110;6.050;2022-12-18T05:57:18;19.30;;;9.27;;
37411;SDS011;23278;52.110;6.050;2022-12-18T05:59:44;13.93;;;7.87;;
37411;SDS011;23278;52.110;6.050;2022-12-18T06:02:10;16.20;;;7.90;;
37411;SDS011;23278;52.110;6.050;2022-12-18T06:04:36;19.27;;;8.63;;
37411;SDS011;23278;52.110;6.050;2022-12-18T06:07:02;18.50;;;10.33;;
37411;SDS011;23278;52.110;6.050;2022-12-18T06:09:29;13.80;;;7.37;;
37411;SDS011;23278;52.110;6.050;2022-12-18T06:11:55;12.53;;;7.00;;
37411;SDS011;23278;52.110;6.050;2022-12-18T06:14:21;17.80;;;7.53;;
37411;SDS011;23278;52.110;6.050;2022-12-18T06:16:46;19.50;;;9.27;;
37411;SDS011;23278;52.110;6.050;2022-12-18T06:19:16;16.90;;;9.33;;
37411;SDS011;23278;52.110;6.050;2022-12-18T06:21:42;15.13;;;7.97;;
37411;SDS011;23278;52.110;6.050;2022-12-18T06:24:08;15.97;;;7.90;;
37411;SDS011;23278;52.110;6.050;2022-12-18T06:26:34;17.03;;;8.40;;
37411;SDS011;23278;52.110;6.050;2022-12-18T06:29:03;12.30;;;8.00;;
37411;SDS011;23278;52.110;6.050;2022-12-18T06:31:28;13.33;;;8.00;;
37411;SDS011;23278;52.110;6.050;2022-12-18T06:33:54;12.40;;;6.93;;
37411;SDS011;23278;52.110;6.050;2022-12-18T06:36:20;14.13;;;7.33;;
37411;SDS011;23278;52.110;6.050;2022-12-18T06:38:46;16.93;;;7.60;;
37411;SDS011;23278;52.110;6.050;2022-12-18T06:41:13;12.80;;;7.13;;
37411;SDS011;23278;52.110;6.050;2022-12-18T06:43:41;15.03;;;7.87;;
37411;SDS011;23278;52.110;6.050;2022-12-18T06:46:07;15.30;;;7.70;;
37411;SDS011;23278;52.110;6.050;2022-12-18T06:48:34;13.00;;;6.47;;
37411;SDS011;23278;52.110;6.050;2022-12-18T06:51:00;12.87;;;7.00;;
37411;SDS011;23278;52.110;6.050;2022-12-18T06:53:26;13.50;;;7.43;;
37411;SDS011;23278;52.110;6.050;2022-12-18T06:55:59;13.07;;;7.97;;
37411;SDS011;23278;52.110;6.050;2022-12-18T06:58:28;13.53;;;7.20;;
37411;SDS011;23278;52.110;6.050;2022-12-18T07:00:59;17.07;;;8.13;;
37411;SDS011;23278;52.110;6.050;2022-12-18T07:03:26;12.60;;;6.60;;
37411;SDS011;23278;52.110;6.050;2022-12-18T07:05:52;16.17;;;8.23;;
37411;SDS011;23278;52.110;6.050;2022-12-18T07:08:18;14.03;;;7.47;;
37411;SDS011;23278;52.110;6.050;2022-12-18T07:10:44;13.27;;;7.93;;
37411;SDS011;23278;52.110;6.050;2022-12-18T07:13:10;14.90;;;7.53;;
37411;SDS011;23278;52.110;6.050;2022-12-18T07:15:36;19.33;;;8.93;;
37411;SDS011;23278;52.110;6.050;2022-12-18T07:18:02;22.93;;;8.57;;
37411;SDS011;23278;52.110;6.050;2022-12-18T07:20:28;23.10;;;9.27;;
37411;SDS011;23278;52.110;6.050;2022-12-18T07:22:54;15.93;;;8.40;;
37411;SDS011;23278;52.110;6.050;2022-12-18T07:25:20;17.20;;;9.53;;
37411;SDS011;23278;52.110;6.050;2022-12-18T07:27:46;16.73;;;8.63;;
37411;SDS011;23278;52.110;6.050;2022-12-18T07:30:12;13.60;;;8.13;;
37411;SDS011;23278;52.110;6.050;2022-12-18T07:32:38;15.83;;;7.83;;
37411;SDS011;23278;52.110;6.050;2022-12-18T07:35:04;17.30;;;8.33;;
37411;SDS011;23278;52.110;6.050;2022-12-18T07:37:30;14.97;;;8.80;;
37411;SDS011;23278;52.110;6.050;2022-12-18T07:39:56;15.03;;;8.33;;
37411;SDS011;23278;52.110;6.050;2022-12-18T07:42:22;14.57;;;6.50;;
37411;SDS011;23278;52.110;6.050;2022-12-18T07:44:57;13.23;;;7.23;;
37411;SDS011;23278;52.110;6.050;2022-12-18T07:47:23;19.50;;;9.40;;
37411;SDS011;23278;52.110;6.050;2022-12-18T07:49:49;16.90;;;9.10;;
37411;SDS011;23278;52.110;6.050;2022-12-18T07:52:15;16.97;;;8.67;;
37411;SDS011;23278;52.110;6.050;2022-12-18T07:54:41;18.37;;;9.73;;
37411;SDS011;23278;52.110;6.050;2022-12-18T07:57:07;16.87;;;9.43;;
37411;SDS011;23278;52.110;6.050;2022-12-18T07:59:34;15.03;;;8.57;;
37411;SDS011;23278;52.110;6.050;2022-12-18T08:02:00;13.77;;;7.53;;
37411;SDS011;23278;52.110;6.050;2022-12-18T08:04:26;14.23;;;8.67;;
37411;SDS011;23278;52.110;6.050;2022-12-18T08:06:52;18.53;;;8.90;;
37411;SDS011;23278;52.110;6.050;2022-12-18T08:09:18;19.03;;;10.43;;
37411;SDS011;23278;52.110;6.050;2022-12-18T08:11:44;19.27;;;9.50;;
37411;SDS011;23278;52.110;6.050;2022-12-18T08:14:10;20.60;;;9.33;;
37411;SDS011;23278;52.110;6.050;2022-12-18T08:16:36;17.33;;;8.07;;
37411;SDS011;23278;52.110;6.050;2022-12-18T08:19:02;20.43;;;9.40;;
37411;SDS011;23278;52.110;6.050;2022-12-18T08:21:29;16.23;;;8.83;;
37411;SDS011;23278;52.110;6.050;2022-12-18T08:23:57;14.73;;;7.97;;
37411;SDS011;23278;52.110;6.050;2022-12-18T08:26:26;18.90;;;9.60;;
37411;SDS011;23278;52.110;6.050;2022-12-18T08:28:54;21.73;;;9.33;;
37411;SDS011;23278;52.110;6.050;2022-12-18T08:31:21;15.27;;;8.27;;
37411;SDS011;23278;52.110;6.050;2022-12-18T08:33:48;18.53;;;9.80;;
37411;SDS011;23278;52.110;6.050;2022-12-18T08:36:15;20.67;;;9.60;;
37411;SDS011;23278;52.110;6.050;2022-12-18T08:38:42;21.00;;;10.67;;
37411;SDS011;23278;52.110;6.050;2022-12-18T08:41:11;18.53;;;10.50;;
37411;SDS011;23278;52.110;6.050;2022-12-18T08:43:38;18.83;;;9.17;;
37411;SDS011;23278;52.110;6.050;2022-12-18T08:46:23;18.30;;;9.40;;
37411;SDS011;23278;52.110;6.050;2022-12-18T08:48:51;20.97;;;10.43;;
37411;SDS011;23278;52.110;6.050;2022-12-18T08:51:18;21.47;;;9.13;;
37411;SDS011;23278;52.110;6.050;2022-12-18T08:53:45;23.37;;;11.30;;
37411;SDS011;23278;52.110;6.050;2022-12-18T08:56:11;26.43;;;12.27;;
37411;SDS011;23278;52.110;6.050;2022-12-18T08:58:37;22.97;;;12.53;;
37411;SDS011;23278;52.110;6.050;2022-12-18T09:01:04;23.73;;;11.23;;
37411;SDS011;23278;52.110;6.050;2022-12-18T09:03:32;20.13;;;10.23;;
37411;SDS011;23278;52.110;6.050;2022-12-18T09:05:58;24.50;;;12.43;;
37411;SDS011;23278;52.110;6.050;2022-12-18T09:08:25;23.53;;;12.30;;
37411;SDS011;23278;52.110;6.050;2022-12-18T09:10:51;17.60;;;10.67;;
37411;SDS011;23278;52.110;6.050;2022-12-18T09:13:17;25.77;;;12.70;;
37411;SDS011;23278;52.110;6.050;2022-12-18T09:15:47;20.37;;;10.67;;
37411;SDS011;23278;52.110;6.050;2022-12-18T09:18:16;18.83;;;11.53;;
37411;SDS011;23278;52.110;6.050;2022-12-18T09:20:43;20.70;;;12.20;;
37411;SDS011;23278;52.110;6.050;2022-12-18T09:23:09;23.23;;;10.90;;
37411;SDS011;23278;52.110;6.050;2022-12-18T09:25:36;19.57;;;11.13;;
37411;SDS011;23278;52.110;6.050;2022-12-18T09:28:03;23.57;;;11.90;;
37411;SDS011;23278;52.110;6.050;2022-12-18T09:30:31;19.50;;;11.63;;
37411;SDS011;23278;52.110;6.050;2022-12-18T09:33:00;17.03;;;9.83;;
37411;SDS011;23278;52.110;6.050;2022-12-18T09:35:26;16.93;;;9.43;;
37411;SDS011;23278;52.110;6.050;2022-12-18T09:37:53;20.43;;;10.53;;
37411;SDS011;23278;52.110;6.050;2022-12-18T09:40:21;19.03;;;9.97;;
37411;SDS011;23278;52.110;6.050;2022-12-18T09:42:57;16.53;;;9.70;;
37411;SDS011;23278;52.110;6.050;2022-12-18T09:45:27;20.70;;;9.13;;
37411;SDS011;23278;52.110;6.050;2022-12-18T09:48:01;16.50;;;9.37;;
37411;SDS011;23278;52.110;6.050;2022-12-18T09:50:37;14.77;;;8.80;;
37411;SDS011;23278;52.110;6.050;2022-12-18T09:53:06;17.23;;;9.97;;
37411;SDS011;23278;52.110;6.050;2022-12-18T09:55:41;18.10;;;9.00;;
37411;SDS011;23278;52.110;6.050;2022-12-18T10:00:35;15.07;;;8.00;;
37411;SDS011;23278;52.110;6.050;2022-12-18T10:03:11;14.73;;;8.37;;
37411;SDS011;23278;52.110;6.050;2022-12-18T10:11:01;15.07;;;9.60;;
37411;SDS011;23278;52.110;6.050;2022-12-18T10:13:42;15.60;;;8.60;;
37411;SDS011;23278;52.110;6.050;2022-12-18T10:16:19;15.13;;;8.93;;
37411;SDS011;23278;52.110;6.050;2022-12-18T10:21:34;13.40;;;7.60;;
37411;SDS011;23278;52.110;6.050;2022-12-18T10:24:23;14.77;;;8.03;;
37411;SDS011;23278;52.110;6.050;2022-12-18T10:26:52;13.73;;;8.23;;
37411;SDS011;23278;52.110;6.050;2022-12-18T10:29:24;14.57;;;8.10;;
37411;SDS011;23278;52.110;6.050;2022-12-18T10:31:50;14.40;;;7.80;;
37411;SDS011;23278;52.110;6.050;2022-12-18T10:34:16;15.33;;;7.43;;
37411;SDS011;23278;52.110;6.050;2022-12-18T10:36:42;11.63;;;6.83;;
37411;SDS011;23278;52.110;6.050;2022-12-18T10:39:18;10.73;;;6.93;;
37411;SDS011;23278;52.110;6.050;2022-12-18T10:41:47;14.83;;;6.50;;
37411;SDS011;23278;52.110;6.050;2022-12-18T10:44:24;11.83;;;7.13;;
37411;SDS011;23278;52.110;6.050;2022-12-18T10:47:05;13.83;;;7.87;;
37411;SDS011;23278;52.110;6.050;2022-12-18T10:49:47;22.17;;;9.30;;
37411;SDS011;23278;52.110;6.050;2022-12-18T10:52:18;16.40;;;8.70;;
37411;SDS011;23278;52.110;6.050;2022-12-18T10:54:51;15.43;;;9.17;;
37411;SDS011;23278;52.110;6.050;2022-12-18T10:57:36;11.70;;;6.73;;
37411;SDS011;23278;52.110;6.050;2022-12-18T11:02:50;13.27;;;7.03;;
37411;SDS011;23278;52.110;6.050;2022-12-18T11:07:52;15.10;;;7.37;;
37411;SDS011;23278;52.110;6.050;2022-12-18T11:10:22;12.87;;;6.93;;
37411;SDS011;23278;52.110;6.050;2022-12-18T11:13:08;15.10;;;8.07;;
37411;SDS011;23278;52.110;6.050;2022-12-18T11:15:37;12.17;;;6.90;;
37411;SDS011;23278;52.110;6.050;2022-12-18T11:18:14;13.27;;;8.27;;
37411;SDS011;23278;52.110;6.050;2022-12-18T11:20:49;11.07;;;7.37;;
37411;SDS011;23278;52.110;6.050;2022-12-18T11:23:16;11.93;;;7.43;;
37411;SDS011;23278;52.110;6.050;2022-12-18T11:25:54;10.07;;;6.53;;
37411;SDS011;23278;52.110;6.050;2022-12-18T11:28:38;13.57;;;7.77;;
37411;SDS011;23278;52.110;6.050;2022-12-18T11:31:19;11.40;;;7.70;;
37411;SDS011;23278;52.110;6.050;2022-12-18T11:33:56;11.03;;;6.83;;
37411;SDS011;23278;52.110;6.050;2022-12-18T11:36:32;14.23;;;7.90;;
37411;SDS011;23278;52.110;6.050;2022-12-18T11:39:05;13.68;;;9.23;;
37411;SDS011;23278;52.110;6.050;2022-12-18T11:42:21;14.17;;;8.33;;
37411;SDS011;23278;52.110;6.050;2022-12-18T11:48:12;12.50;;;8.00;;
37411;SDS011;23278;52.110;6.050;2022-12-18T11:50:54;13.10;;;7.00;;
37411;SDS011;23278;52.110;6.050;2022-12-18T11:53:22;9.77;;;6.20;;
37411;SDS011;23278;52.110;6.050;2022-12-18T11:56:04;13.87;;;7.83;;
37411;SDS011;23278;52.110;6.050;2022-12-18T12:18:07;13.47;;;7.37;;
37411;SDS011;23278;52.110;6.050;2022-12-18T12:23:50;15.37;;;8.57;;
37411;SDS011;23278;52.110;6.050;2022-12-18T12:26:31;12.10;;;8.37;;
37411;SDS011;23278;52.110;6.050;2022-12-18T12:40:11;11.10;;;6.90;;
37411;SDS011;23278;52.110;6.050;2022-12-18T12:42:43;11.30;;;7.30;;
37411;SDS011;23278;52.110;6.050;2022-12-18T12:45:39;9.90;;;7.10;;
37411;SDS011;23278;52.110;6.050;2022-12-18T12:50:49;11.50;;;6.10;;
37411;SDS011;23278;52.110;6.050;2022-12-18T12:53:21;9.97;;;6.57;;
37411;SDS011;23278;52.110;6.050;2022-12-18T12:55:52;11.30;;;7.20;;
37411;SDS011;23278;52.110;6.050;2022-12-18T12:58:26;11.27;;;6.17;;
37411;SDS011;23278;52.110;6.050;2022-12-18T13:01:17;8.75;;;5.68;;
37411;SDS011;23278;52.110;6.050;2022-12-18T13:06:43;14.23;;;7.28;;
37411;SDS011;23278;52.110;6.050;2022-12-18T13:09:17;10.63;;;6.37;;
37411;SDS011;23278;52.110;6.050;2022-12-18T13:11:44;13.70;;;7.83;;
37411;SDS011;23278;52.110;6.050;2022-12-18T13:14:36;13.30;;;7.63;;
37411;SDS011;23278;52.110;6.050;2022-12-18T13:20:09;12.30;;;7.93;;
37411;SDS011;23278;52.110;6.050;2022-12-18T13:22:44;11.70;;;7.40;;
37411;SDS011;23278;52.110;6.050;2022-12-18T13:25:28;14.43;;;7.70;;
37411;SDS011;23278;52.110;6.050;2022-12-18T13:28:01;11.37;;;7.03;;
37411;SDS011;23278;52.110;6.050;2022-12-18T13:43:39;10.40;;;7.20;;
37411;SDS011;23278;52.110;6.050;2022-12-18T13:51:39;11.70;;;7.17;;
37411;SDS011;23278;52.110;6.050;2022-12-18T13:54:28;12.27;;;6.78;;
37411;SDS011;23278;52.110;6.050;2022-12-18T13:57:05;13.13;;;8.13;;
37411;SDS011;23278;52.110;6.050;2022-12-18T13:59:51;10.57;;;7.47;;
37411;SDS011;23278;52.110;6.050;2022-12-18T14:02:18;11.40;;;7.27;;
37411;SDS011;23278;52.110;6.050;2022-12-18T14:04:48;14.20;;;6.77;;
37411;SDS011;23278;52.110;6.050;2022-12-18T14:07:21;10.63;;;7.00;;
37411;SDS011;23278;52.110;6.050;2022-12-18T14:09:50;16.03;;;8.57;;
37411;SDS011;23278;52.110;6.050;2022-12-18T14:12:22;12.13;;;8.07;;
37411;SDS011;23278;52.110;6.050;2022-12-18T14:17:51;12.33;;;7.03;;
37411;SDS011;23278;52.110;6.050;2022-12-18T14:20:17;14.60;;;7.77;;
37411;SDS011;23278;52.110;6.050;2022-12-18T14:22:44;14.23;;;7.83;;
37411;SDS011;23278;52.110;6.050;2022-12-18T14:27:41;12.33;;;7.53;;
37411;SDS011;23278;52.110;6.050;2022-12-18T14:30:31;11.63;;;7.10;;
37411;SDS011;23278;52.110;6.050;2022-12-18T14:35:28;11.07;;;7.53;;
37411;SDS011;23278;52.110;6.050;2022-12-18T14:38:07;12.80;;;7.67;;
37411;SDS011;23278;52.110;6.050;2022-12-18T14:40:35;15.13;;;7.33;;
37411;SDS011;23278;52.110;6.050;2022-12-18T14:43:01;15.03;;;7.83;;
37411;SDS011;23278;52.110;6.050;2022-12-18T14:45:34;13.73;;;8.43;;
37411;SDS011;23278;52.110;6.050;2022-12-18T14:48:05;12.97;;;8.17;;
37411;SDS011;23278;52.110;6.050;2022-12-18T14:50:35;12.73;;;7.27;;
37411;SDS011;23278;52.110;6.050;2022-12-18T14:53:00;10.90;;;7.57;;
37411;SDS011;23278;52.110;6.050;2022-12-18T14:55:27;12.90;;;7.87;;
37411;SDS011;23278;52.110;6.050;2022-12-18T14:57:53;10.03;;;7.27;;
37411;SDS011;23278;52.110;6.050;2022-12-18T15:00:22;12.87;;;8.40;;
37411;SDS011;23278;52.110;6.050;2022-12-18T15:02:50;11.90;;;7.50;;
37411;SDS011;23278;52.110;6.050;2022-12-18T15:05:28;11.75;;;7.20;;
37411;SDS011;23278;52.110;6.050;2022-12-18T15:07:56;10.77;;;6.17;;
37411;SDS011;23278;52.110;6.050;2022-12-18T15:10:31;12.20;;;6.63;;
37411;SDS011;23278;52.110;6.050;2022-12-18T15:23:47;13.37;;;9.03;;
37411;SDS011;23278;52.110;6.050;2022-12-18T15:26:15;14.10;;;8.07;;
37411;SDS011;23278;52.110;6.050;2022-12-18T15:28:47;12.70;;;7.07;;
37411;SDS011;23278;52.110;6.050;2022-12-18T15:36:18;11.67;;;6.97;;
37411;SDS011;23278;52.110;6.050;2022-12-18T15:38:49;13.70;;;7.30;;
37411;SDS011;23278;52.110;6.050;2022-12-18T15:41:17;11.80;;;7.73;;
37411;SDS011;23278;52.110;6.050;2022-12-18T15:43:45;9.90;;;6.70;;
37411;SDS011;23278;52.110;6.050;2022-12-18T15:46:17;13.20;;;7.70;;
37411;SDS011;23278;52.110;6.050;2022-12-18T15:48:46;12.82;;;7.97;;
37411;SDS011;23278;52.110;6.050;2022-12-18T15:53:59;14.57;;;8.20;;
37411;SDS011;23278;52.110;6.050;2022-12-18T15:56:29;10.73;;;7.35;;
37411;SDS011;23278;52.110;6.050;2022-12-18T15:59:16;13.23;;;8.53;;
37411;SDS011;23278;52.110;6.050;2022-12-18T16:01:47;12.17;;;7.67;;
37411;SDS011;23278;52.110;6.050;2022-12-18T16:04:16;10.43;;;6.93;;
37411;SDS011;23278;52.110;6.050;2022-12-18T16:06:45;16.73;;;8.77;;
37411;SDS011;23278;52.110;6.050;2022-12-18T16:09:12;12.73;;;7.60;;
37411;SDS011;23278;52.110;6.050;2022-12-18T16:11:39;16.07;;;7.77;;
37411;SDS011;23278;52.110;6.050;2022-12-18T16:14:20;13.57;;;6.93;;
37411;SDS011;23278;52.110;6.050;2022-12-18T16:16:55;16.10;;;8.80;;
37411;SDS011;23278;52.110;6.050;2022-12-18T16:19:26;17.00;;;9.73;;
37411;SDS011;23278;52.110;6.050;2022-12-18T16:21:54;18.73;;;9.70;;
37411;SDS011;23278;52.110;6.050;2022-12-18T16:24:25;19.13;;;9.97;;
37411;SDS011;23278;52.110;6.050;2022-12-18T16:26:56;19.57;;;11.50;;
37411;SDS011;23278;52.110;6.050;2022-12-18T16:29:24;17.93;;;10.67;;
37411;SDS011;23278;52.110;6.050;2022-12-18T16:31:56;19.33;;;10.03;;
37411;SDS011;23278;52.110;6.050;2022-12-18T16:34:27;16.40;;;9.40;;
37411;SDS011;23278;52.110;6.050;2022-12-18T16:36:56;17.70;;;10.27;;
37411;SDS011;23278;52.110;6.050;2022-12-18T16:39:23;23.23;;;11.27;;
37411;SDS011;23278;52.110;6.050;2022-12-18T16:41:50;22.23;;;11.50;;
37411;SDS011;23278;52.110;6.050;2022-12-18T16:44:16;20.00;;;11.03;;
37411;SDS011;23278;52.110;6.050;2022-12-18T16:46:43;22.10;;;11.87;;
37411;SDS011;23278;52.110;6.050;2022-12-18T16:49:12;17.23;;;10.93;;
37411;SDS011;23278;52.110;6.050;2022-12-18T16:51:40;16.50;;;9.77;;
37411;SDS011;23278;52.110;6.050;2022-12-18T16:54:06;21.23;;;10.67;;